Data for 12/31/2010

Time Sea-Level Adjusted Pressure Absolute Pressure Temperature Relative Humidity Dew Point   
(mb) (inHg) (mb) (inHg) (C) (F) (%) (C) (F)
00:05 1012 29.88 841 24.83 -18.5 -1.2 76 -21.6 -6.9
00:10 1012 29.88 841 24.83 -18.5 -1.3 77 -21.6 -6.9
00:15 1012 29.88 841 24.83 -18.4 -1.2 77 -21.6 -6.9
00:20 1012 29.88 841 24.83 -18.6 -1.4 76 -21.8 -7.2
00:25 1012 29.88 841 24.83 -18.5 -1.4 76 -21.8 -7.2
00:30 1012 29.88 841 24.83 -18.6 -1.5 75 -22 -7.6
00:35 1012 29.88 841 24.83 -18.6 -1.5 76 -21.9 -7.5
00:40 1012 29.88 841 24.83 -18.7 -1.6 77 -21.7 -7.1
00:45 1012 29.88 841 24.83 -18.7 -1.6 78 -21.7 -7
00:50 1012 29.88 841 24.83 -18.7 -1.7 77 -21.8 -7.2
00:55 1012 29.88 841 24.83 -18.8 -1.8 78 -21.7 -7.1
01:00 1012 29.88 841 24.83 -18.8 -1.8 79 -21.6 -6.9
01:05 1012 29.88 841 24.83 -18.8 -1.8 79 -21.5 -6.8
01:10 1012 29.88 841 24.83 -18.8 -1.8 80 -21.5 -6.7
01:15 1012 29.88 841 24.83 -18.8 -1.8 80 -21.4 -6.6
01:20 1012 29.88 841 24.83 -18.8 -1.8 80 -21.4 -6.6
01:25 1012 29.88 841 24.83 -18.8 -1.8 81 -21.3 -6.3
01:30 1012 29.88 841 24.83 -18.7 -1.7 81 -21.2 -6.1
01:35 1012 29.88 841 24.83 -18.8 -1.8 82 -21.2 -6.1
01:40 1012 29.88 842 24.86 -18.8 -1.8 83 -21 -5.8
01:45 1012 29.88 842 24.86 -18.9 -2 83 -21.1 -6
01:50 1012 29.88 842 24.86 -19 -2.3 83 -21.3 -6.3
01:55 1012 29.88 842 24.86 -19.1 -2.3 84 -21.1 -6.1
02:00 1012 29.88 842 24.86 -19 -2.2 84 -21.1 -6.1
02:05 1012 29.88 842 24.86 -19.1 -2.4 85 -21.1 -5.9
02:10 1013 29.91 842 24.86 -19.1 -2.4 84 -21.1 -6
02:15 1013 29.91 842 24.86 -19 -2.2 85 -21 -5.8
02:20 1013 29.91 842 24.86 -18.8 -1.8 84 -20.8 -5.5
02:25 1013 29.91 842 24.86 -18.6 -1.5 82 -20.9 -5.6
02:30 1013 29.91 842 24.86 -18.9 -2 84 -21 -5.7
02:35 1013 29.91 842 24.86 -18.7 -1.6 84 -20.8 -5.4
02:40 1013 29.91 842 24.86 -18.5 -1.2 83 -20.6 -5.1
02:45 1013 29.91 842 24.86 -18.4 -1.1 83 -20.7 -5.2
02:50 1013 29.91 842 24.86 -18.3 -1 82 -20.7 -5.3
02:55 1013 29.91 842 24.86 -18.3 -1 82 -20.7 -5.2
03:00 1013 29.91 842 24.86 -18.3 -0.9 81 -20.7 -5.3
03:05 1013 29.91 842 24.86 -18.3 -1 82 -20.7 -5.2
03:10 1013 29.91 842 24.86 -18.3 -0.9 82 -20.7 -5.2
03:15 1013 29.91 842 24.86 -18.3 -0.9 82 -20.7 -5.2
03:20 1013 29.91 842 24.86 -18.3 -1 82 -20.7 -5.3
03:25 1013 29.91 842 24.86 -18.4 -1.1 82 -20.8 -5.4
03:30 1013 29.91 842 24.86 -18.5 -1.3 82 -20.8 -5.5
03:35 1013 29.91 842 24.86 -18.4 -1.2 82 -20.8 -5.5
03:40 1013 29.91 842 24.86 -18.4 -1.1 82 -20.8 -5.4
03:45 1013 29.91 842 24.86 -18.4 -1.1 82 -20.8 -5.4
03:50 1013 29.91 842 24.86 -18.4 -1.1 81 -20.8 -5.5
03:55 1013 29.91 842 24.86 -18.4 -1.1 82 -20.8 -5.4
04:00 1013 29.91 842 24.86 -18.4 -1.2 82 -20.9 -5.5
04:05 1013 29.91 843 24.89 -18.5 -1.3 81 -21 -5.8
04:10 1013 29.91 842 24.86 -18.5 -1.4 82 -21 -5.7
04:15 1013 29.91 842 24.86 -18.5 -1.3 81 -20.9 -5.7
04:20 1013 29.91 843 24.89 -18.4 -1.2 81 -20.9 -5.6
04:25 1013 29.91 843 24.89 -18.5 -1.2 82 -20.9 -5.6
04:30 1013 29.91 843 24.89 -18.5 -1.3 81 -20.9 -5.7
04:35 1013 29.91 843 24.89 -18.6 -1.5 81 -21.1 -6
04:40 1013 29.91 843 24.89 -18.7 -1.6 81 -21.1 -6
04:45 1013 29.91 843 24.89 -18.6 -1.5 81 -21.1 -5.9
04:50 1013 29.91 843 24.89 -18.6 -1.5 81 -21.1 -6
04:55 1013 29.91 843 24.89 -18.7 -1.7 82 -21.1 -6
05:00 1013 29.91 843 24.89 -18.7 -1.6 82 -21.1 -5.9
05:05 1013 29.91 843 24.89 -18.7 -1.6 81 -21.1 -6.1
05:10 1013 29.91 843 24.89 -18.7 -1.6 82 -21.1 -5.9
05:15 1013 29.91 843 24.89 -18.7 -1.6 81 -21.1 -6.1
05:20 1013 29.91 843 24.89 -18.7 -1.6 81 -21.3 -6.3
05:25 1013 29.91 843 24.89 -18.7 -1.7 81 -21.2 -6.1
05:30 1013 29.91 843 24.89 -18.7 -1.7 81 -21.2 -6.2
05:35 1014 29.94 843 24.89 -18.7 -1.7 80 -21.3 -6.4
05:40 1014 29.94 843 24.89 -18.8 -1.8 81 -21.2 -6.2
05:45 1014 29.94 843 24.89 -18.8 -1.8 81 -21.2 -6.2
05:50 1014 29.94 843 24.89 -18.8 -1.8 81 -21.3 -6.4
05:55 1014 29.94 843 24.89 -18.9 -2 81 -21.3 -6.4
06:00 1014 29.94 843 24.89 -18.9 -2 81 -21.3 -6.4
06:05 1014 29.94 843 24.89 -18.9 -2.1 81 -21.4 -6.5
06:10 1014 29.94 843 24.89 -19 -2.1 81 -21.5 -6.7
06:15 1014 29.94 843 24.89 -19.1 -2.3 81 -21.6 -6.8
06:20 1014 29.94 843 24.89 -19 -2.2 81 -21.5 -6.8
06:25 1014 29.94 843 24.89 -19 -2.3 80 -21.6 -6.9
06:30 1014 29.94 843 24.89 -19.2 -2.6 81 -21.8 -7.2
06:35 1014 29.94 843 24.89 -19.3 -2.7 81 -21.8 -7.2
06:40 1014 29.94 843 24.89 -19.3 -2.8 81 -21.9 -7.3
06:45 1014 29.94 843 24.89 -19.4 -2.9 81 -21.9 -7.3
06:50 1014 29.94 843 24.89 -19.4 -2.9 81 -21.9 -7.4
06:55 1014 29.94 843 24.89 -19.5 -3.1 81 -22 -7.5
07:00 1014 29.94 843 24.89 -19.5 -3.1 81 -22 -7.6
07:05 1014 29.94 843 24.89 -19.6 -3.3 81 -22 -7.7
07:10 1014 29.94 843 24.89 -19.6 -3.3 81 -22 -7.7
07:15 1014 29.94 843 24.89 -19.7 -3.4 82 -22.1 -7.7
07:20 1014 29.94 843 24.89 -19.7 -3.4 82 -22.1 -7.7
07:25 1014 29.94 844 24.92 -19.8 -3.6 82 -22.2 -7.9
07:30 1014 29.94 844 24.92 -19.9 -3.7 82 -22.2 -7.9
07:35 1014 29.94 844 24.92 -19.8 -3.7 83 -22.1 -7.7
07:40 1014 29.94 844 24.92 -19.7 -3.5 82 -22.1 -7.7
07:45 1014 29.94 844 24.92 -19.7 -3.5 82 -22.1 -7.8
07:50 1014 29.94 844 24.92 -19.8 -3.7 82 -22.1 -7.9
07:55 1014 29.94 844 24.92 -19.9 -3.8 82 -22.3 -8.1
08:00 1014 29.94 844 24.92 -20.1 -4.1 83 -22.3 -8.1
08:05 1014 29.94 844 24.92 -20.2 -4.4 84 -22.3 -8.2
08:10 1014 29.94 844 24.92 -20.3 -4.5 84 -22.3 -8.2
08:15 1015 29.97 844 24.92 -20.3 -4.5 84 -22.4 -8.3
08:20 1015 29.97 844 24.92 -20.3 -4.5 84 -22.3 -8.2
08:25 1014 29.94 844 24.92 -20.3 -4.5 84 -22.4 -8.3
08:30 1014 29.94 844 24.92 -20.3 -4.5 84 -22.3 -8.2
08:35 1015 29.97 844 24.92 -20.3 -4.5 84 -22.3 -8.2
08:40 1015 29.97 844 24.92 -20.3 -4.5 84 -22.3 -8.2
08:45 1015 29.97 844 24.92 -20.2 -4.4 84 -22.3 -8.1
08:50 1015 29.97 844 24.92 -20.1 -4.2 84 -22.2 -8
08:55 1015 29.97 844 24.92 -20 -4 83 -22.3 -8.1
09:00 1015 29.97 844 24.92 -20 -4 82 -22.3 -8.1
09:05 1015 29.97 844 24.92 -20 -3.9 83 -22.2 -8
09:10 1015 29.97 844 24.92 -19.9 -3.8 82 -22.3 -8.1
09:15 1015 29.97 844 24.92 -19.7 -3.5 82 -22.1 -7.8
09:20 1015 29.97 844 24.92 -19.6 -3.2 82 -22 -7.5
09:25 1015 29.97 844 24.92 -19.4 -2.9 81 -21.9 -7.5
09:30 1015 29.97 844 24.92 -19.2 -2.6 80 -21.9 -7.4
09:35 1015 29.97 844 24.92 -19.2 -2.5 78 -22 -7.7
09:40 1015 29.97 844 24.92 -19.4 -3 80 -22.1 -7.8
09:45 1015 29.97 844 24.92 -19.2 -2.5 79 -22 -7.7
09:50 1015 29.97 844 24.92 -19 -2.1 80 -21.6 -7
09:55 1015 29.97 844 24.92 -18.4 -1 75 -21.7 -7.1
10:00 1015 29.97 844 24.92 -18.5 -1.3 76 -21.7 -7
10:05 1015 29.97 845 24.95 -18.4 -1.1 73 -22.1 -7.7
10:10 1015 29.97 845 24.95 -18.7 -1.7 75 -22.1 -7.7
10:15 1015 29.97 845 24.95 -18.2 -0.7 73 -21.9 -7.4
10:20 1015 29.97 845 24.95 -18.2 -0.7 74 -21.7 -7
10:25 1015 29.97 845 24.95 -18.2 -0.7 73 -21.9 -7.3
10:30 1015 29.97 845 24.95 -18 -0.3 73 -21.7 -7.1
10:35 1015 29.97 845 24.95 -18.1 -0.5 73 -21.8 -7.2
10:40 1015 29.97 844 24.92 -17.7 0.2 72 -21.6 -6.9
10:45 1015 29.97 844 24.92 -17 1.4 67 -21.7 -7
10:50 1015 29.97 844 24.92 -17.5 0.5 71 -21.6 -6.9
10:55 1015 29.97 844 24.92 -17.8 -0.1 74 -21.5 -6.6
11:00 1015 29.97 844 24.92 -17.7 0.2 72 -21.6 -6.9
11:05 1015 29.97 844 24.92 -17.9 -0.2 73 -21.6 -6.9
11:10 1015 29.97 844 24.92 -17.8 -0.1 73 -21.5 -6.7
11:15 1015 29.97 844 24.92 -16.9 1.6 69 -21.3 -6.3
11:20 1015 29.97 844 24.92 -17.1 1.2 72 -21 -5.8
11:25 1015 29.97 844 24.92 -16.5 2.3 69 -21 -5.8
11:30 1015 29.97 844 24.92 -15.9 3.4 67 -20.7 -5.3
11:35 1015 29.97 844 24.92 -15.9 3.3 66 -20.8 -5.5
11:40 1015 29.97 844 24.92 -15.9 3.3 66 -20.9 -5.7
11:45 1015 29.97 844 24.92 -16.4 2.4 67 -21.2 -6.2
11:50 1015 29.97 844 24.92 -15.8 3.6 64 -21.2 -6.1
11:55 1015 29.97 844 24.92 -15.9 3.4 66 -20.9 -5.6
12:00 1014 29.94 844 24.92 -15.4 4.3 63 -20.9 -5.7
12:05 1014 29.94 844 24.92 -15.6 4 63 -21 -5.8
12:10 1014 29.94 844 24.92 -15.3 4.4 62 -21.2 -6.1
12:15 1014 29.94 844 24.92 -15.3 4.6 61 -21.1 -6
12:20 1014 29.94 844 24.92 -15.2 4.7 61 -21.2 -6.1
12:25 1014 29.94 844 24.92 -15.4 4.3 61 -21.3 -6.4
12:30 1014 29.94 844 24.92 -15.4 4.4 61 -21.3 -6.4
12:35 1014 29.94 844 24.92 -15.6 3.9 63 -21.2 -6.1
12:40 1014 29.94 844 24.92 -15.2 4.6 59 -21.6 -6.9
12:45 1014 29.94 844 24.92 -15.8 3.6 62 -21.4 -6.6
12:50 1014 29.94 843 24.89 -16.3 2.7 65 -21.5 -6.7
12:55 1014 29.94 843 24.89 -16.6 2.1 64 -22 -7.6
13:00 1014 29.94 843 24.89 -16.1 3 61 -22 -7.5
13:05 1014 29.94 843 24.89 -16 3.1 62 -21.8 -7.2
13:10 1014 29.94 843 24.89 -16.4 2.6 63 -21.8 -7.3
13:15 1014 29.94 843 24.89 -16.3 2.8 62 -21.9 -7.4
13:20 1014 29.94 843 24.89 -16 3.2 61 -21.9 -7.3
13:25 1014 29.94 843 24.89 -16.1 3 62 -21.8 -7.2
13:30 1014 29.94 843 24.89 -16.2 2.9 62 -21.8 -7.3
13:35 1014 29.94 843 24.89 -16.1 3.1 62 -21.9 -7.4
13:40 1014 29.94 843 24.89 -15.9 3.3 59 -22.1 -7.9
13:45 1014 29.94 843 24.89 -16.4 2.6 63 -21.9 -7.4
13:50 1014 29.94 843 24.89 -16.3 2.6 62 -22 -7.5
13:55 1014 29.94 843 24.89 -16.2 2.9 60 -22.2 -7.9
14:00 1014 29.94 843 24.89 -16.7 2 62 -22.3 -8.1
14:05 1014 29.94 843 24.89 -16.6 2.1 63 -22.1 -7.8
14:10 1014 29.94 843 24.89 -16.3 2.6 62 -22 -7.7
14:15 1014 29.94 843 24.89 -16.1 3.1 61 -22.1 -7.7
14:20 1014 29.94 843 24.89 -16.2 2.9 62 -21.9 -7.5
14:25 1014 29.94 843 24.89 -16.3 2.7 61 -22.3 -8.1
14:30 1014 29.94 843 24.89 -16.1 3.1 59 -22.3 -8.1
14:35 1014 29.94 843 24.89 -16.5 2.3 60 -22.5 -8.5
14:40 1014 29.94 843 24.89 -16.3 2.7 61 -22.3 -8.1
14:45 1014 29.94 843 24.89 -15.9 3.4 59 -22.2 -7.9
14:50 1014 29.94 843 24.89 -16 3.2 60 -22.1 -7.8
14:55 1014 29.94 843 24.89 -16.1 2.9 59 -22.3 -8.2
15:00 1014 29.94 843 24.89 -16.2 2.9 59 -22.5 -8.5
15:05 1014 29.94 843 24.89 -15.9 3.4 59 -22.1 -7.8
15:10 1014 29.94 843 24.89 -15.8 3.6 58 -22.3 -8.1
15:15 1014 29.94 843 24.89 -15.7 3.8 58 -22.2 -7.9
15:20 1014 29.94 843 24.89 -16 3.3 58 -22.5 -8.5
15:25 1014 29.94 843 24.89 -16.2 2.9 60 -22.3 -8.1
15:30 1014 29.94 843 24.89 -16.1 2.9 59 -22.4 -8.3
15:35 1014 29.94 843 24.89 -15.6 4 57 -22.4 -8.2
15:40 1014 29.94 843 24.89 -15.2 4.6 56 -22.2 -8
15:45 1014 29.94 843 24.89 -15.6 3.8 58 -22.1 -7.7
15:50 1014 29.94 843 24.89 -16 3.1 59 -22.2 -8
15:55 1014 29.94 843 24.89 -16.1 3.1 59 -22.3 -8.2
16:00 1014 29.94 843 24.89 -16.1 3 62 -21.8 -7.3
16:05 1014 29.94 843 24.89 -16 3.2 62 -21.7 -7
16:10 1014 29.94 843 24.89 -16.2 2.8 62 -21.8 -7.3
16:15 1014 29.94 843 24.89 -16.4 2.5 61 -22.2 -8
16:20 1014 29.94 843 24.89 -16.7 2 64 -21.9 -7.4
16:25 1014 29.94 843 24.89 -16.8 1.8 65 -21.9 -7.5
16:30 1014 29.94 843 24.89 -16.9 1.7 64 -22.1 -7.9
16:35 1014 29.94 843 24.89 -17.4 0.7 64 -22.7 -8.8
16:40 1014 29.94 843 24.89 -18.2 -0.7 67 -22.9 -9.3
16:45 1014 29.94 843 24.89 -18.9 -1.9 68 -23.3 -10
16:50 1014 29.94 843 24.89 -18.8 -1.9 70 -23 -9.4
16:55 1014 29.94 843 24.89 -19.1 -2.4 71 -23.1 -9.6
17:00 1013 29.91 843 24.89 -19.3 -2.7 72 -23.1 -9.5
17:05 1013 29.91 843 24.89 -19.2 -2.5 72 -23 -9.3
17:10 1013 29.91 843 24.89 -19.2 -2.6 74 -22.7 -8.9
17:15 1013 29.91 843 24.89 -19.6 -3.2 75 -22.9 -9.2
17:20 1013 29.91 843 24.89 -19.8 -3.6 77 -22.9 -9.2
17:25 1013 29.91 843 24.89 -19.9 -3.7 77 -22.9 -9.2
17:30 1014 29.94 843 24.89 -20 -4 78 -22.9 -9.3
17:35 1014 29.94 843 24.89 -20.1 -4.2 78 -23 -9.3
17:40 1014 29.94 843 24.89 -20.2 -4.3 79 -23 -9.4
17:45 1014 29.94 843 24.89 -20.1 -4.1 79 -22.8 -9
17:50 1014 29.94 843 24.89 -19.9 -3.8 78 -22.8 -9
17:55 1014 29.94 843 24.89 -19.9 -3.8 78 -22.8 -9
18:00 1014 29.94 843 24.89 -19.7 -3.5 77 -22.8 -9
18:05 1013 29.91 843 24.89 -19.5 -3.1 76 -22.8 -9
18:10 1013 29.91 843 24.89 -19.3 -2.7 75 -22.8 -9
18:15 1013 29.91 842 24.86 -19.6 -3.2 75 -23 -9.4
18:20 1013 29.91 842 24.86 -20.5 -4.9 77 -23.6 -10.4
18:25 1013 29.91 842 24.86 -20.9 -5.6 79 -23.7 -10.7
18:30 1013 29.91 843 24.89 -20.8 -5.4 77 -23.8 -10.8
18:35 1013 29.91 843 24.89 -20.5 -4.9 77 -23.6 -10.4
18:40 1013 29.91 843 24.89 -20.4 -4.8 75 -23.8 -10.9
18:45 1013 29.91 842 24.86 -20.4 -4.6 75 -23.8 -10.8
18:50 1013 29.91 842 24.86 -19.8 -3.6 72 -23.7 -10.6
18:55 1013 29.91 842 24.86 -19.5 -3.2 70 -23.7 -10.7
19:00 1013 29.91 842 24.86 -19.8 -3.6 69 -24 -11.3
19:05 1013 29.91 843 24.89 -21.2 -6.1 73 -24.7 -12.5
19:10 1013 29.91 842 24.86 -22 -7.6 76 -25.1 -13.1
19:15 1013 29.91 842 24.86 -21.7 -7.1 76 -24.8 -12.7
19:20 1013 29.91 842 24.86 -21.3 -6.4 75 -24.7 -12.5
19:25 1013 29.91 842 24.86 -21.4 -6.6 74 -24.9 -12.8
19:30 1013 29.91 842 24.86 -21.9 -7.4 77 -24.9 -12.9
19:35 1013 29.91 842 24.86 -21.6 -7 75 -25 -12.9
19:40 1013 29.91 842 24.86 -21.7 -7.1 77 -24.8 -12.6
19:45 1013 29.91 842 24.86 -21.3 -6.3 75 -24.6 -12.2
19:50 1013 29.91 842 24.86 -21.3 -6.4 75 -24.7 -12.4
19:55 1013 29.91 842 24.86 -21.3 -6.4 74 -24.8 -12.6
20:00 1013 29.91 842 24.86 -21.2 -6.2 74 -24.7 -12.4
20:05 1013 29.91 842 24.86 -21.3 -6.3 74 -24.7 -12.4
20:10 1013 29.91 842 24.86 -21.2 -6.2 74 -24.7 -12.4
20:15 1013 29.91 842 24.86 -21.2 -6.2 75 -24.6 -12.3
20:20 1013 29.91 842 24.86 -21.2 -6.1 76 -24.4 -11.9
20:25 1013 29.91 842 24.86 -20.8 -5.5 74 -24.4 -11.9
20:30 1013 29.91 842 24.86 -20.9 -5.6 73 -24.5 -12.1
20:35 1013 29.91 842 24.86 -21.1 -5.9 74 -24.5 -12.2
20:40 1013 29.91 842 24.86 -21 -5.8 76 -24.2 -11.5
20:45 1013 29.91 842 24.86 -20.7 -5.3 74 -24.2 -11.6
20:50 1013 29.91 842 24.86 -20.8 -5.5 75 -24.2 -11.5
20:55 1013 29.91 842 24.86 -20.8 -5.4 75 -24.2 -11.5
21:00 1013 29.91 842 24.86 -21 -5.8 75 -24.3 -11.8
21:05 1013 29.91 842 24.86 -21.1 -6 74 -24.6 -12.2
21:10 1013 29.91 843 24.89 -21.1 -5.9 75 -24.4 -12
21:15 1013 29.91 843 24.89 -21 -5.8 76 -24.3 -11.7
21:20 1013 29.91 843 24.89 -20.8 -5.4 74 -24.3 -11.7
21:25 1013 29.91 843 24.89 -21 -5.7 75 -24.4 -11.9
21:30 1013 29.91 843 24.89 -21.2 -6.2 76 -24.3 -11.8
21:35 1014 29.94 843 24.89 -21.2 -6.2 77 -24.3 -11.7
21:40 1014 29.94 843 24.89 -21.4 -6.5 76 -24.5 -12.1
21:45 1013 29.91 843 24.89 -21.5 -6.7 77 -24.5 -12.2
21:50 1013 29.91 843 24.89 -21.5 -6.7 76 -24.6 -12.3
21:55 1013 29.91 843 24.89 -21.2 -6.1 76 -24.4 -11.9
22:00 1013 29.91 843 24.89 -20.9 -5.7 75 -24.3 -11.7
22:05 1013 29.91 843 24.89 -21 -5.8 76 -24.3 -11.7
22:10 1013 29.91 843 24.89 -21.1 -5.9 77 -24.2 -11.5
22:15 1013 29.91 843 24.89 -21 -5.8 77 -24 -11.2
22:20 1013 29.91 843 24.89 -20.9 -5.6 77 -23.9 -11
22:25 1014 29.94 843 24.89 -20.8 -5.4 76 -23.9 -11
22:30 1014 29.94 843 24.89 -20.7 -5.2 75 -24 -11.2
22:35 1014 29.94 843 24.89 -20.5 -4.8 75 -23.8 -10.9
22:40 1014 29.94 843 24.89 -20.2 -4.4 75 -23.6 -10.4
22:45 1014 29.94 843 24.89 -20.1 -4.1 75 -23.5 -10.3
22:50 1014 29.94 843 24.89 -20 -4 75 -23.4 -10.1
22:55 1014 29.94 843 24.89 -19.9 -3.7 74 -23.3 -10
23:00 1014 29.94 843 24.89 -19.6 -3.3 74 -23.2 -9.7
23:05 1014 29.94 843 24.89 -19.4 -2.9 73 -23.1 -9.6
23:10 1014 29.94 843 24.89 -19.3 -2.7 74 -22.7 -8.9
23:15 1014 29.94 843 24.89 -18.9 -2.1 74 -22.5 -8.5
23:20 1014 29.94 843 24.89 -18.6 -1.5 71 -22.6 -8.7
23:25 1014 29.94 843 24.89 -18.7 -1.6 72 -22.5 -8.5
23:30 1014 29.94 843 24.89 -18.8 -1.8 72 -22.6 -8.7
23:35 1014 29.94 843 24.89 -19.1 -2.3 72 -22.9 -9.2
23:40 1014 29.94 844 24.92 -19.1 -2.5 72 -22.9 -9.3
23:45 1014 29.94 844 24.92 -19.1 -2.3 72 -22.9 -9.2
23:50 1014 29.94 844 24.92 -18.8 -1.9 71 -22.8 -9
23:55 1014 29.94 844 24.92 -18.7 -1.6 71 -22.7 -8.9
24:00 1015 29.97 844 24.92 -18.6 -1.5 73 -22.4 -8.3